createdAt,value
2022-12-25T00:03:34.935Z,100.00
2022-12-25T00:07:36.630Z,100.00
2022-12-25T00:11:38.181Z,100.00
2022-12-25T00:15:41.713Z,100.00
2022-12-25T00:19:43.503Z,100.00
2022-12-25T00:23:45.154Z,100.00
2022-12-25T00:27:46.860Z,100.00
2022-12-25T00:31:48.544Z,100.00
2022-12-25T00:36:00.593Z,100.00
2022-12-25T00:40:02.167Z,100.00
2022-12-25T00:44:03.735Z,100.00
2022-12-25T00:48:05.626Z,100.00
2022-12-25T00:52:07.722Z,100.00
2022-12-25T00:56:10.702Z,100.00
2022-12-25T01:00:12.765Z,100.00
2022-12-25T01:04:14.429Z,100.00
2022-12-25T01:08:15.959Z,100.00
2022-12-25T01:12:17.511Z,100.00
2022-12-25T01:16:21.950Z,100.00
2022-12-25T01:20:23.519Z,100.00
2022-12-25T01:24:25.069Z,100.00
2022-12-25T01:28:26.643Z,100.00
2022-12-25T01:32:28.454Z,100.00
2022-12-25T01:36:30.025Z,100.00
2022-12-25T01:40:34.330Z,100.00
2022-12-25T01:44:35.859Z,100.00
2022-12-25T01:48:39.349Z,100.00
2022-12-25T01:52:41.538Z,100.00
2022-12-25T01:56:53.984Z,100.00
2022-12-25T02:00:55.793Z,100.00
2022-12-25T02:05:05.543Z,100.00
2022-12-25T02:09:07.411Z,100.00
2022-12-25T02:13:09.415Z,100.00
2022-12-25T02:17:32.940Z,100.00
2022-12-25T02:21:53.010Z,100.00
2022-12-25T02:26:25.093Z,100.00
2022-12-25T02:30:28.407Z,100.00
2022-12-25T02:34:49.154Z,100.00
2022-12-25T02:39:14.823Z,100.00
2022-12-25T02:43:41.598Z,100.00
2022-12-25T02:48:01.805Z,100.00
2022-12-25T02:52:28.559Z,100.00
2022-12-25T02:56:50.304Z,100.00
2022-12-25T03:01:16.954Z,100.00
2022-12-25T03:05:42.219Z,100.00
2022-12-25T03:10:11.528Z,100.00
2022-12-25T03:14:32.080Z,100.00
2022-12-25T03:18:34.244Z,100.00
2022-12-25T03:22:55.412Z,100.00
2022-12-25T03:26:57.494Z,100.00
2022-12-25T03:31:27.021Z,100.00
2022-12-25T03:35:46.420Z,100.00
2022-12-25T03:40:21.337Z,100.00
2022-12-25T03:45:04.986Z,100.00
2022-12-25T03:49:40.225Z,100.00
2022-12-25T03:54:06.722Z,100.00
2022-12-25T03:58:37.749Z,100.00
2022-12-25T04:02:57.990Z,100.00
2022-12-25T04:07:18.578Z,100.00
2022-12-25T04:11:38.869Z,100.00
2022-12-25T04:15:59.104Z,100.00
2022-12-25T04:20:19.295Z,100.00
2022-12-25T04:24:39.270Z,100.00
2022-12-25T04:28:59.607Z,100.00
2022-12-25T04:33:20.770Z,100.00
2022-12-25T04:37:23.185Z,100.00
2022-12-25T04:41:24.742Z,100.00
2022-12-25T04:45:26.418Z,100.00
2022-12-25T04:49:28.124Z,100.00
2022-12-25T04:53:29.683Z,100.00
2022-12-25T04:57:31.501Z,100.00
2022-12-25T05:01:33.188Z,100.00
2022-12-25T05:05:34.821Z,100.00
2022-12-25T05:09:36.459Z,100.00
2022-12-25T05:13:38.736Z,100.00
2022-12-25T05:17:40.561Z,100.00
2022-12-25T05:21:42.163Z,100.00
2022-12-25T05:25:43.715Z,100.00
2022-12-25T05:29:45.384Z,100.00
2022-12-25T05:33:51.372Z,100.00
2022-12-25T05:37:53.037Z,100.00
2022-12-25T05:41:54.737Z,100.00
2022-12-25T05:45:56.406Z,100.00
2022-12-25T05:49:58.129Z,100.00
2022-12-25T05:53:59.782Z,100.00
2022-12-25T05:58:01.399Z,100.00
2022-12-25T06:02:03.173Z,100.00
2022-12-25T06:06:05.081Z,100.00
2022-12-25T06:10:07.398Z,100.00
2022-12-25T06:14:12.706Z,100.00
2022-12-25T06:18:14.252Z,100.00
2022-12-25T06:22:15.926Z,100.00
2022-12-25T06:26:19.593Z,100.00
2022-12-25T06:30:21.278Z,100.00
2022-12-25T06:34:23.439Z,100.00
2022-12-25T06:38:25.024Z,100.00
2022-12-25T06:42:26.616Z,100.00
2022-12-25T06:46:30.081Z,100.00
2022-12-25T06:50:31.678Z,100.00
2022-12-25T06:54:33.253Z,100.00
2022-12-25T06:58:34.835Z,100.00
2022-12-25T07:02:38.620Z,100.00
2022-12-25T07:06:40.332Z,100.00
2022-12-25T07:10:41.859Z,100.00
2022-12-25T07:14:44.990Z,100.00
2022-12-25T07:18:46.593Z,100.00
2022-12-25T07:22:48.198Z,100.00
2022-12-25T07:26:51.423Z,100.00
2022-12-25T07:30:53.680Z,100.00
2022-12-25T07:34:55.249Z,100.00
2022-12-25T07:38:57.309Z,100.00
2022-12-25T07:42:58.858Z,100.00
2022-12-25T07:47:00.416Z,100.00
2022-12-25T07:51:05.846Z,100.00
2022-12-25T07:55:07.696Z,100.00
2022-12-25T07:59:09.302Z,100.00
2022-12-25T08:03:50.561Z,100.00
2022-12-25T08:07:57.622Z,100.00
2022-12-25T08:11:59.662Z,100.00
2022-12-25T08:16:03.606Z,100.00
2022-12-25T08:20:06.008Z,100.00
2022-12-25T08:24:08.090Z,100.00
2022-12-25T08:28:09.677Z,100.00
2022-12-25T08:32:12.856Z,100.00
2022-12-25T08:36:14.577Z,100.00
2022-12-25T08:40:16.296Z,100.00
2022-12-25T08:44:17.925Z,100.00
2022-12-25T08:48:19.495Z,100.00
2022-12-25T08:52:21.375Z,100.00
2022-12-25T08:56:23.006Z,100.00
2022-12-25T09:00:24.542Z,100.00
2022-12-25T09:04:27.206Z,100.00
2022-12-25T09:08:28.896Z,100.00
2022-12-25T09:12:30.442Z,100.00
2022-12-25T09:16:32.998Z,100.00
2022-12-25T09:20:34.782Z,100.00
2022-12-25T09:24:36.405Z,100.00
2022-12-25T09:28:38.002Z,100.00
2022-12-25T09:32:40.401Z,100.00
2022-12-25T09:36:42.147Z,100.00
2022-12-25T09:40:43.721Z,100.00
2022-12-25T09:44:54.256Z,100.00
2022-12-25T09:49:06.186Z,100.00
2022-12-25T09:53:12.885Z,100.00
2022-12-25T09:57:15.278Z,100.00
2022-12-25T10:01:41.374Z,100.00
2022-12-25T10:06:18.023Z,100.00
2022-12-25T10:10:41.140Z,100.00
2022-12-25T10:14:56.791Z,100.00
2022-12-25T10:19:27.490Z,100.00
2022-12-25T10:23:49.283Z,100.00
2022-12-25T10:27:54.669Z,100.00
2022-12-25T10:31:56.796Z,100.00
2022-12-25T10:35:58.495Z,100.00
2022-12-25T10:40:00.163Z,100.00
2022-12-25T10:44:16.142Z,100.00
2022-12-25T10:48:24.952Z,100.00
2022-12-25T10:52:28.826Z,100.00
2022-12-25T10:56:30.751Z,100.00
2022-12-25T11:00:33.296Z,100.00
2022-12-25T11:04:37.469Z,100.00
2022-12-25T11:08:39.262Z,100.00
2022-12-25T11:12:44.777Z,100.00
2022-12-25T11:16:46.829Z,100.00
2022-12-25T11:20:53.314Z,100.00
2022-12-25T11:24:55.379Z,100.00
2022-12-25T11:28:57.949Z,100.00
2022-12-25T11:33:06.760Z,100.00
2022-12-25T11:37:17.865Z,100.00
2022-12-25T11:41:23.456Z,100.00
2022-12-25T11:45:33.277Z,100.00
2022-12-25T11:49:49.478Z,100.00
2022-12-25T11:53:54.903Z,100.00
2022-12-25T11:58:01.541Z,100.00
2022-12-25T12:02:25.155Z,100.00
2022-12-25T12:06:51.073Z,100.00
2022-12-25T12:11:19.466Z,100.00
2022-12-25T12:15:41.336Z,100.00
2022-12-25T12:19:43.187Z,100.00
2022-12-25T12:24:10.763Z,100.00
2022-12-25T12:28:24.342Z,100.00
2022-12-25T12:32:32.096Z,100.00
2022-12-25T12:36:36.766Z,100.00
2022-12-25T12:40:44.221Z,100.00
2022-12-25T12:44:46.531Z,100.00
2022-12-25T12:48:50.427Z,100.00
2022-12-25T12:52:52.212Z,100.00
2022-12-25T12:57:21.791Z,100.00
2022-12-25T13:01:26.617Z,100.00
2022-12-25T13:05:39.300Z,100.00
2022-12-25T13:10:08.556Z,100.00
2022-12-25T13:14:20.208Z,100.00
2022-12-25T13:18:22.022Z,100.00
2022-12-25T13:22:32.776Z,100.00
2022-12-25T13:26:35.055Z,100.00
2022-12-25T13:30:36.831Z,100.00
2022-12-25T13:34:43.242Z,100.00
2022-12-25T13:38:46.833Z,100.00
2022-12-25T13:43:29.843Z,100.00
2022-12-25T13:47:37.129Z,100.00
2022-12-25T13:51:38.866Z,100.00
2022-12-25T13:55:44.058Z,100.00
2022-12-25T14:00:04.457Z,100.00
2022-12-25T14:04:14.195Z,100.00
2022-12-25T14:08:22.052Z,100.00
2022-12-25T14:12:24.659Z,100.00
2022-12-25T14:16:27.220Z,100.00
2022-12-25T14:20:33.819Z,100.00
2022-12-25T14:24:35.424Z,100.00
2022-12-25T14:28:37.793Z,100.00
2022-12-25T14:32:44.651Z,100.00
2022-12-25T14:36:47.013Z,100.00
2022-12-25T14:40:58.761Z,100.00
2022-12-25T14:45:19.186Z,100.00
2022-12-25T14:49:24.748Z,100.00
2022-12-25T14:53:35.568Z,100.00
2022-12-25T14:57:40.583Z,100.00
2022-12-25T15:01:42.971Z,100.00
2022-12-25T15:05:44.765Z,100.00
2022-12-25T15:09:46.435Z,100.00
2022-12-25T15:13:48.010Z,100.00
2022-12-25T15:17:50.489Z,100.00
2022-12-25T15:21:52.320Z,100.00
2022-12-25T15:25:53.934Z,100.00
2022-12-25T15:30:11.308Z,100.00
2022-12-25T15:34:21.078Z,100.00
2022-12-25T15:38:22.717Z,100.00
2022-12-25T15:42:25.238Z,100.00
2022-12-25T15:46:27.059Z,100.00
2022-12-25T15:50:29.375Z,100.00
2022-12-25T15:54:32.126Z,100.00
2022-12-25T15:58:33.683Z,100.00
2022-12-25T16:02:35.363Z,100.00
2022-12-25T16:06:37.463Z,100.00
2022-12-25T16:10:40.483Z,100.00
2022-12-25T16:14:42.720Z,100.00
2022-12-25T16:18:47.670Z,100.00
2022-12-25T16:22:49.647Z,100.00
2022-12-25T16:26:51.184Z,100.00
2022-12-25T16:30:52.814Z,100.00
2022-12-25T16:34:54.392Z,100.00
2022-12-25T16:38:56.764Z,100.00
2022-12-25T16:42:58.467Z,100.00
2022-12-25T16:47:00.197Z,100.00
2022-12-25T16:51:08.272Z,100.00
2022-12-25T16:55:10.208Z,100.00
2022-12-25T16:59:11.923Z,100.00
2022-12-25T17:03:13.731Z,100.00
2022-12-25T17:07:17.269Z,100.00
2022-12-25T17:11:23.625Z,100.00
2022-12-25T17:15:25.193Z,100.00
2022-12-25T17:19:26.780Z,100.00
2022-12-25T17:23:28.432Z,100.00
2022-12-25T17:27:30.017Z,100.00
2022-12-25T17:31:31.903Z,100.00
2022-12-25T17:35:36.388Z,100.00
2022-12-25T17:39:38.649Z,100.00
2022-12-25T17:43:42.191Z,100.00
2022-12-25T17:47:43.761Z,100.00
2022-12-25T17:51:46.355Z,100.00
2022-12-25T17:55:48.026Z,100.00
2022-12-25T17:59:49.596Z,100.00
2022-12-25T18:03:52.283Z,100.00
2022-12-25T18:07:53.981Z,100.00
2022-12-25T18:11:55.880Z,100.00
2022-12-25T18:15:57.508Z,100.00
2022-12-25T18:19:59.249Z,100.00
2022-12-25T18:24:03.859Z,100.00
2022-12-25T18:28:05.399Z,100.00
2022-12-25T18:32:07.568Z,100.00
2022-12-25T18:36:11.853Z,100.00
2022-12-25T18:40:14.019Z,100.00
2022-12-25T18:44:15.729Z,100.00
2022-12-25T18:48:17.339Z,100.00
2022-12-25T18:52:48.080Z,100.00
2022-12-25T18:56:40.681Z,100.00
2022-12-25T19:00:42.304Z,100.00
2022-12-25T19:04:46.568Z,100.00
2022-12-25T19:08:48.724Z,100.00
2022-12-25T19:12:50.327Z,100.00
2022-12-25T19:16:52.877Z,100.00
2022-12-25T19:20:54.458Z,100.00
2022-12-25T19:24:56.029Z,100.00
2022-12-25T19:28:57.600Z,100.00
2022-12-25T19:32:59.248Z,100.00
2022-12-25T19:37:00.793Z,100.00
2022-12-25T19:41:11.473Z,100.00
2022-12-25T19:45:13.012Z,100.00
2022-12-25T19:49:14.826Z,100.00
2022-12-25T19:53:17.609Z,100.00
2022-12-25T19:57:19.060Z,100.00
2022-12-25T20:01:22.645Z,100.00
2022-12-25T20:05:24.242Z,100.00
2022-12-25T20:09:25.844Z,100.00
2022-12-25T20:13:27.488Z,100.00
2022-12-25T20:17:29.061Z,100.00
2022-12-25T20:21:30.839Z,100.00
2022-12-25T20:25:32.571Z,100.00
2022-12-25T20:29:34.109Z,100.00
2022-12-25T20:33:36.453Z,100.00
2022-12-25T20:37:38.109Z,100.00
2022-12-25T20:41:40.703Z,100.00
2022-12-25T20:45:42.528Z,100.00
2022-12-25T20:49:44.180Z,100.00
2022-12-25T20:53:46.206Z,100.00
2022-12-25T20:57:47.759Z,100.00
2022-12-25T21:01:49.586Z,100.00
2022-12-25T21:05:53.238Z,100.00
2022-12-25T21:09:54.832Z,100.00
2022-12-25T21:13:57.048Z,100.00
2022-12-25T21:17:58.687Z,100.00
2022-12-25T21:22:00.316Z,100.00
2022-12-25T21:26:13.572Z,100.00
2022-12-25T21:30:16.112Z,100.00
2022-12-25T21:34:18.343Z,100.00
2022-12-25T21:38:20.720Z,100.00
2022-12-25T21:42:22.424Z,99.92
2022-12-25T21:46:24.771Z,100.00
2022-12-25T21:50:45.355Z,99.38
2022-12-25T21:54:47.004Z,99.13
2022-12-25T21:58:48.748Z,99.35
2022-12-25T22:02:50.557Z,99.30
2022-12-25T22:07:20.395Z,99.73
2022-12-25T22:11:41.358Z,99.54
2022-12-25T22:16:01.423Z,98.74
2022-12-25T22:20:04.444Z,98.28
2022-12-25T22:24:08.206Z,98.41
2022-12-25T22:28:09.748Z,98.13
2022-12-25T22:32:13.261Z,97.92
2022-12-25T22:36:14.923Z,97.46
2022-12-25T22:40:18.977Z,97.47
2022-12-25T22:44:20.567Z,97.43
2022-12-25T22:48:22.095Z,97.01
2022-12-25T22:52:24.850Z,97.20
2022-12-25T22:56:26.367Z,97.28
2022-12-25T23:00:28.403Z,96.78
2022-12-25T23:04:30.146Z,96.73
2022-12-25T23:08:31.705Z,96.72
2022-12-25T23:12:51.896Z,96.35
2022-12-25T23:16:53.544Z,96.50
2022-12-25T23:21:18.979Z,96.87
2022-12-25T23:25:39.401Z,96.45
2022-12-25T23:29:41.267Z,96.33
2022-12-25T23:33:42.828Z,96.40
2022-12-25T23:37:45.117Z,96.31
2022-12-25T23:41:46.715Z,95.61
2022-12-25T23:45:48.324Z,95.79
2022-12-25T23:49:49.869Z,95.58
2022-12-25T23:53:51.692Z,95.27
2022-12-25T23:57:53.362Z,94.62
